createdAt,value
2019-01-23T00:00:32.352Z,1.20
2019-01-23T00:03:00.865Z,1.40
2019-01-23T00:05:29.155Z,1.73
2019-01-23T00:07:57.692Z,2.30
2019-01-23T00:10:26.274Z,2.20
2019-01-23T00:12:54.682Z,1.70
2019-01-23T00:15:23.235Z,2.23
2019-01-23T00:17:51.728Z,2.17
2019-01-23T00:20:19.974Z,2.30
2019-01-23T00:22:48.580Z,2.70
2019-01-23T00:25:17.093Z,2.30
2019-01-23T00:27:45.378Z,1.80
2019-01-23T00:30:14.258Z,2.03
2019-01-23T00:32:42.596Z,2.27
2019-01-23T00:35:11.391Z,1.57
2019-01-23T00:37:39.830Z,2.40
2019-01-23T00:40:10.394Z,1.90
2019-01-23T00:42:38.822Z,2.20
2019-01-23T00:45:08.607Z,1.90
2019-01-23T00:47:37.166Z,2.27
2019-01-23T00:50:06.223Z,1.60
2019-01-23T00:52:34.845Z,2.10
2019-01-23T00:55:03.633Z,2.20
2019-01-23T00:57:32.214Z,1.70
2019-01-23T01:00:00.829Z,1.80
2019-01-23T01:02:29.483Z,1.50
2019-01-23T01:04:58.002Z,1.43
2019-01-23T01:07:26.467Z,1.77
2019-01-23T01:09:54.935Z,1.73
2019-01-23T01:12:23.247Z,1.73
2019-01-23T01:14:51.790Z,1.50
2019-01-23T01:17:20.191Z,1.87
2019-01-23T01:19:48.455Z,1.90
2019-01-23T01:22:16.958Z,1.60
2019-01-23T01:24:45.402Z,1.50
2019-01-23T01:27:13.891Z,1.50
2019-01-23T01:29:42.460Z,1.17
2019-01-23T01:32:11.009Z,1.40
2019-01-23T01:34:39.264Z,1.20
2019-01-23T01:37:07.520Z,1.17
2019-01-23T01:39:36.007Z,1.13
2019-01-23T01:42:04.499Z,1.10
2019-01-23T01:44:32.851Z,0.90
2019-01-23T01:47:01.310Z,1.30
2019-01-23T01:49:29.892Z,1.20
2019-01-23T01:51:58.314Z,1.13
2019-01-23T01:54:26.647Z,1.10
2019-01-23T01:56:55.237Z,1.30
2019-01-23T01:59:23.744Z,1.00
2019-01-23T02:01:52.268Z,1.30
2019-01-23T02:04:20.775Z,1.13
2019-01-23T02:06:49.299Z,1.60
2019-01-23T02:09:17.746Z,1.70
2019-01-23T02:11:46.423Z,1.63
2019-01-23T02:14:14.963Z,1.90
2019-01-23T02:16:43.282Z,1.60
2019-01-23T02:19:11.760Z,1.90
2019-01-23T02:21:40.342Z,1.60
2019-01-23T02:24:08.854Z,1.60
2019-01-23T02:26:37.143Z,1.57
2019-01-23T02:29:09.440Z,1.80
2019-01-23T02:31:35.915Z,1.40
2019-01-23T02:34:04.221Z,1.40
2019-01-23T02:36:32.761Z,1.30
2019-01-23T02:39:01.241Z,1.27
2019-01-23T02:41:29.564Z,1.20
2019-01-23T02:43:57.823Z,1.00
2019-01-23T02:46:26.476Z,0.57
2019-01-23T02:48:54.855Z,0.97
2019-01-23T02:51:23.259Z,1.13
2019-01-23T02:53:51.817Z,0.80
2019-01-23T02:56:20.131Z,0.70
2019-01-23T02:58:48.493Z,0.87
2019-01-23T03:01:16.841Z,0.90
2019-01-23T03:03:45.432Z,0.90
2019-01-23T03:06:13.961Z,0.80
2019-01-23T03:08:42.143Z,0.77
2019-01-23T03:11:10.582Z,1.00
2019-01-23T03:13:39.364Z,0.77
2019-01-23T03:16:10.491Z,0.87
2019-01-23T03:18:38.895Z,0.70
2019-01-23T03:21:07.272Z,0.70
2019-01-23T03:23:35.934Z,0.60
2019-01-23T03:26:04.552Z,1.07
2019-01-23T03:28:32.828Z,0.70
2019-01-23T03:31:01.274Z,0.80
2019-01-23T03:33:29.686Z,0.90
2019-01-23T03:35:57.960Z,0.57
2019-01-23T03:38:26.202Z,1.20
2019-01-23T03:40:54.684Z,0.97
2019-01-23T03:43:22.993Z,1.37
2019-01-23T03:45:51.337Z,1.50
2019-01-23T03:48:19.630Z,1.40
2019-01-23T03:50:48.195Z,1.40
2019-01-23T03:53:16.784Z,1.20
2019-01-23T03:55:45.214Z,1.20
2019-01-23T03:58:13.737Z,1.10
2019-01-23T04:00:42.256Z,1.17
2019-01-23T04:03:10.627Z,0.80
2019-01-23T04:05:38.896Z,0.80
2019-01-23T04:08:07.454Z,1.03
2019-01-23T04:10:35.959Z,1.10
2019-01-23T04:13:04.354Z,1.00
2019-01-23T04:15:32.811Z,1.40
2019-01-23T04:18:01.376Z,1.27
2019-01-23T04:20:29.795Z,0.90
2019-01-23T04:22:58.336Z,1.33
2019-01-23T04:25:26.848Z,1.83
2019-01-23T04:27:55.401Z,1.03
2019-01-23T04:30:24.222Z,0.97
2019-01-23T04:32:52.673Z,1.13
2019-01-23T04:35:21.391Z,1.20
2019-01-23T04:37:50.038Z,1.40
2019-01-23T04:40:18.651Z,1.03
2019-01-23T04:42:47.205Z,1.20
2019-01-23T04:45:15.798Z,1.00
2019-01-23T04:47:44.062Z,1.00
2019-01-23T04:50:13.945Z,0.90
2019-01-23T04:53:01.813Z,0.97
2019-01-23T04:55:30.303Z,0.83
2019-01-23T04:57:58.588Z,1.73
2019-01-23T05:00:27.983Z,1.27
2019-01-23T05:02:56.261Z,0.73
2019-01-23T05:05:24.626Z,0.90
2019-01-23T05:07:53.245Z,0.80
2019-01-23T05:10:21.537Z,1.03
2019-01-23T05:12:49.821Z,0.80
2019-01-23T05:15:18.339Z,0.60
2019-01-23T05:17:46.764Z,0.83
2019-01-23T05:20:15.204Z,0.80
2019-01-23T05:22:43.783Z,0.67
2019-01-23T05:25:12.502Z,0.53
2019-01-23T05:27:41.156Z,0.60
2019-01-23T05:30:16.593Z,0.80
2019-01-23T05:32:44.991Z,0.60
2019-01-23T05:35:32.717Z,0.63
2019-01-23T05:38:01.217Z,0.60
2019-01-23T05:40:29.484Z,0.63
2019-01-23T05:42:57.794Z,0.70
2019-01-23T05:45:26.242Z,0.70
2019-01-23T05:47:54.540Z,1.00
2019-01-23T05:50:23.017Z,1.13
2019-01-23T05:52:51.552Z,1.07
2019-01-23T05:55:19.980Z,1.00
2019-01-23T05:57:48.513Z,1.20
2019-01-23T06:00:18.776Z,1.70
2019-01-23T06:02:47.167Z,2.10
2019-01-23T06:05:16.300Z,2.50
2019-01-23T06:07:44.622Z,2.00
2019-01-23T06:10:13.303Z,2.07
2019-01-23T06:12:41.765Z,2.30
2019-01-23T06:15:10.845Z,2.17
2019-01-23T06:17:39.258Z,5.07
2019-01-23T06:20:10.165Z,2.47
2019-01-23T06:22:38.744Z,1.80
2019-01-23T06:25:07.489Z,1.90
2019-01-23T06:27:35.909Z,1.20
2019-01-23T06:30:10.487Z,1.70
2019-01-23T06:32:37.001Z,1.17
2019-01-23T06:35:05.819Z,1.60
2019-01-23T06:37:34.374Z,1.40
2019-01-23T06:40:02.854Z,2.40
2019-01-23T06:42:31.399Z,2.67
2019-01-23T06:44:59.916Z,3.60
2019-01-23T06:47:28.462Z,5.83
2019-01-23T06:49:56.845Z,23.20
2019-01-23T06:52:25.152Z,31.25
2019-01-23T06:54:53.425Z,25.80
2019-01-23T06:57:21.873Z,26.37
2019-01-23T06:59:50.352Z,24.97
2019-01-23T07:02:18.719Z,22.60
2019-01-23T07:04:47.220Z,23.00
2019-01-23T07:07:15.536Z,23.60
2019-01-23T07:09:44.172Z,24.43
2019-01-23T07:12:12.652Z,21.10
2019-01-23T07:14:41.131Z,21.13
2019-01-23T07:17:09.718Z,20.90
2019-01-23T07:19:39.132Z,17.30
2019-01-23T07:22:07.597Z,16.93
2019-01-23T07:24:36.012Z,21.07
2019-01-23T07:27:04.565Z,20.87
2019-01-23T07:29:33.140Z,21.27
2019-01-23T07:32:01.622Z,19.77
2019-01-23T07:34:30.110Z,19.30
2019-01-23T07:36:58.398Z,19.63
2019-01-23T07:39:26.960Z,18.60
2019-01-23T07:41:55.348Z,20.20
2019-01-23T07:44:24.130Z,22.00
2019-01-23T07:46:52.528Z,19.67
2019-01-23T07:49:20.881Z,16.50
2019-01-23T07:51:49.259Z,11.93
2019-01-23T07:54:17.778Z,13.23
2019-01-23T07:56:46.110Z,15.97
2019-01-23T07:59:14.415Z,17.20
2019-01-23T08:01:42.975Z,18.87
2019-01-23T08:04:11.447Z,19.63
2019-01-23T08:06:40.064Z,21.27
2019-01-23T08:09:08.725Z,18.30
2019-01-23T08:11:37.219Z,16.93
2019-01-23T08:14:05.626Z,14.47
2019-01-23T08:16:33.993Z,10.43
2019-01-23T08:19:02.440Z,8.63
2019-01-23T08:21:31.126Z,8.87
2019-01-23T08:23:59.746Z,7.03
2019-01-23T08:26:28.214Z,7.70
2019-01-23T08:28:56.464Z,6.93
2019-01-23T08:31:24.981Z,5.90
2019-01-23T08:33:53.529Z,4.77
2019-01-23T08:36:22.212Z,3.00
2019-01-23T08:38:50.540Z,3.87
2019-01-23T08:41:18.908Z,4.00
2019-01-23T08:43:47.177Z,4.53
2019-01-23T08:46:15.408Z,3.70
2019-01-23T08:48:43.796Z,3.50
2019-01-23T08:51:12.583Z,2.57
2019-01-23T08:53:40.887Z,2.90
2019-01-23T08:56:09.239Z,3.20
2019-01-23T08:58:37.547Z,2.83
2019-01-23T09:01:06.201Z,2.87
2019-01-23T09:03:34.717Z,2.10
2019-01-23T09:06:03.536Z,2.90
2019-01-23T09:08:37.631Z,2.40
2019-01-23T09:11:02.269Z,3.20
2019-01-23T09:13:30.648Z,4.57
2019-01-23T09:15:59.161Z,4.00
2019-01-23T09:18:27.664Z,3.33
2019-01-23T09:20:56.027Z,2.73
2019-01-23T09:23:24.292Z,3.03
2019-01-23T09:25:52.845Z,2.33
2019-01-23T09:28:21.476Z,1.93
2019-01-23T09:31:49.334Z,2.13
2019-01-23T09:34:37.852Z,1.83
2019-01-23T09:37:29.062Z,1.60
2019-01-23T09:40:13.211Z,1.40
2019-01-23T09:42:54.898Z,1.60
2019-01-23T09:45:56.487Z,1.70
2019-01-23T09:49:21.666Z,1.77
2019-01-23T09:52:33.286Z,2.10
2019-01-23T09:55:01.979Z,2.75
2019-01-23T09:57:32.198Z,2.77
2019-01-23T10:00:00.488Z,2.97
2019-01-23T10:02:29.021Z,3.07
2019-01-23T10:04:57.400Z,3.42
2019-01-23T10:07:25.784Z,3.75
2019-01-23T10:09:54.157Z,2.62
2019-01-23T10:12:22.639Z,2.53
2019-01-23T10:14:51.040Z,2.40
2019-01-23T10:17:19.628Z,1.93
2019-01-23T10:19:47.928Z,2.60
2019-01-23T10:22:16.505Z,2.43
2019-01-23T10:24:44.870Z,2.50
2019-01-23T10:27:13.243Z,2.00
2019-01-23T10:29:41.486Z,2.30
2019-01-23T10:32:09.977Z,2.47
2019-01-23T10:34:38.549Z,1.80
2019-01-23T10:37:07.131Z,2.23
2019-01-23T10:39:35.352Z,2.53
2019-01-23T10:42:04.249Z,2.80
2019-01-23T10:44:32.777Z,2.80
2019-01-23T10:47:01.293Z,2.80
2019-01-23T10:49:29.660Z,2.10
2019-01-23T10:51:58.039Z,2.30
2019-01-23T10:54:26.600Z,2.20
2019-01-23T10:56:55.009Z,3.40
2019-01-23T10:59:23.301Z,2.00
2019-01-23T11:01:51.730Z,2.47
2019-01-23T11:04:20.116Z,2.50
2019-01-23T11:06:48.691Z,2.30
2019-01-23T11:09:17.261Z,2.20
2019-01-23T11:11:45.721Z,2.30
2019-01-23T11:14:14.339Z,2.93
2019-01-23T11:16:42.843Z,4.10
2019-01-23T11:19:11.233Z,3.43
2019-01-23T11:21:39.603Z,3.87
2019-01-23T11:24:08.155Z,3.37
2019-01-23T11:26:36.684Z,3.10
2019-01-23T11:29:05.049Z,3.07
2019-01-23T11:31:33.527Z,3.40
2019-01-23T11:34:01.977Z,3.60
2019-01-23T11:36:30.376Z,3.53
2019-01-23T11:38:58.846Z,3.90
2019-01-23T11:41:27.416Z,3.70
2019-01-23T11:43:55.814Z,3.80
2019-01-23T11:46:24.130Z,3.30
2019-01-23T11:48:52.549Z,3.20
2019-01-23T11:51:21.031Z,3.07
2019-01-23T11:53:49.409Z,3.17
2019-01-23T11:56:17.824Z,4.93
2019-01-23T11:58:46.084Z,6.50
2019-01-23T12:01:14.759Z,3.73
2019-01-23T12:03:43.226Z,12.00
2019-01-23T12:06:11.627Z,8.40
2019-01-23T12:08:40.300Z,3.20
2019-01-23T12:11:08.803Z,3.20
2019-01-23T12:13:37.209Z,5.40
2019-01-23T12:16:05.568Z,4.03
2019-01-23T12:18:33.923Z,3.77
2019-01-23T12:21:02.248Z,3.00
2019-01-23T12:23:30.967Z,3.00
2019-01-23T12:25:59.284Z,3.27
2019-01-23T12:28:29.198Z,2.97
2019-01-23T12:30:57.741Z,4.03
2019-01-23T12:33:26.118Z,4.33
2019-01-23T12:35:54.804Z,4.80
2019-01-23T12:38:23.287Z,4.40
2019-01-23T12:40:51.790Z,3.63
2019-01-23T12:43:20.452Z,4.00
2019-01-23T12:45:49.031Z,4.27
2019-01-23T12:48:17.535Z,3.33
2019-01-23T12:50:46.094Z,3.77
2019-01-23T12:53:14.596Z,3.80
2019-01-23T12:55:43.682Z,3.73
2019-01-23T12:58:12.388Z,3.83
2019-01-23T13:00:41.233Z,3.60
2019-01-23T13:03:11.620Z,3.53
2019-01-23T13:05:40.257Z,3.20
2019-01-23T13:08:08.741Z,3.10
2019-01-23T13:10:37.039Z,3.23
2019-01-23T13:13:05.492Z,3.53
2019-01-23T13:15:34.354Z,3.60
2019-01-23T13:18:02.710Z,3.57
2019-01-23T13:20:31.137Z,3.60
2019-01-23T13:22:59.718Z,3.70
2019-01-23T13:25:29.059Z,3.30
2019-01-23T13:27:59.444Z,3.83
2019-01-23T13:30:28.203Z,3.40
2019-01-23T13:32:56.818Z,3.17
2019-01-23T13:35:27.582Z,3.20
2019-01-23T13:37:56.167Z,3.10
2019-01-23T13:40:29.714Z,3.00
2019-01-23T13:42:58.332Z,3.00
2019-01-23T13:45:26.793Z,3.10
2019-01-23T13:47:55.620Z,2.80
2019-01-23T13:50:24.367Z,2.90
2019-01-23T13:52:52.676Z,3.20
2019-01-23T13:55:21.351Z,2.60
2019-01-23T13:57:49.848Z,8.30
2019-01-23T14:00:20.931Z,3.60
2019-01-23T14:02:49.553Z,3.23
2019-01-23T14:05:18.129Z,4.67
2019-01-23T14:07:46.521Z,2.73
2019-01-23T14:10:15.672Z,4.90
2019-01-23T14:12:44.377Z,2.90
2019-01-23T14:15:16.853Z,2.80
2019-01-23T14:17:45.673Z,3.07
2019-01-23T14:20:14.950Z,2.50
2019-01-23T14:22:43.634Z,2.50
2019-01-23T14:25:13.596Z,2.40
2019-01-23T14:27:41.980Z,2.60
2019-01-23T14:30:17.640Z,2.57
2019-01-23T14:32:45.928Z,2.60
2019-01-23T14:35:14.172Z,2.40
2019-01-23T14:37:42.597Z,2.40
2019-01-23T14:40:11.608Z,2.57
2019-01-23T14:42:40.382Z,2.50
2019-01-23T14:45:09.084Z,2.80
2019-01-23T14:47:37.559Z,2.77
2019-01-23T14:50:07.481Z,4.20
2019-01-23T14:52:36.143Z,3.60
2019-01-23T14:55:05.063Z,3.30
2019-01-23T14:57:33.323Z,2.23
2019-01-23T15:00:01.990Z,2.77
2019-01-23T15:02:30.493Z,2.93
2019-01-23T15:04:58.786Z,3.00
2019-01-23T15:07:27.015Z,3.50
2019-01-23T15:09:55.604Z,2.97
2019-01-23T15:12:24.187Z,3.97
2019-01-23T15:14:52.770Z,3.43
2019-01-23T15:17:21.391Z,3.20
2019-01-23T15:19:49.866Z,3.47
2019-01-23T15:22:18.212Z,3.33
2019-01-23T15:24:46.836Z,3.13
2019-01-23T15:27:15.107Z,2.77
2019-01-23T15:29:43.374Z,3.50
2019-01-23T15:32:17.214Z,4.23
2019-01-23T15:34:42.266Z,4.57
2019-01-23T15:37:10.868Z,4.20
2019-01-23T15:39:39.313Z,3.10
2019-01-23T15:42:07.723Z,4.00
2019-01-23T15:44:36.381Z,4.17
2019-01-23T15:47:04.961Z,3.30
2019-01-23T15:49:33.443Z,4.03
2019-01-23T15:52:01.784Z,3.97
2019-01-23T15:54:30.103Z,3.90
2019-01-23T15:56:58.679Z,4.33
2019-01-23T15:59:26.970Z,4.17
2019-01-23T16:01:55.452Z,4.87
2019-01-23T16:04:23.948Z,4.67
2019-01-23T16:06:52.321Z,4.67
2019-01-23T16:09:20.811Z,4.40
2019-01-23T16:11:49.293Z,4.60
2019-01-23T16:14:17.652Z,4.50
2019-01-23T16:16:45.998Z,4.20
2019-01-23T16:19:14.595Z,12.23
2019-01-23T16:21:45.735Z,7.73
2019-01-23T16:24:13.395Z,9.63
2019-01-23T16:26:41.708Z,6.90
2019-01-23T16:29:10.085Z,5.53
2019-01-23T16:31:41.395Z,6.10
2019-01-23T16:34:09.791Z,5.23
2019-01-23T16:36:38.065Z,4.73
2019-01-23T16:39:08.011Z,4.60
2019-01-23T16:41:36.648Z,3.90
2019-01-23T16:44:05.357Z,5.03
2019-01-23T16:46:33.813Z,4.87
2019-01-23T16:49:02.396Z,4.43
2019-01-23T16:51:30.882Z,4.83
2019-01-23T16:53:59.459Z,5.07
2019-01-23T16:56:27.746Z,4.00
2019-01-23T16:58:56.145Z,4.97
2019-01-23T17:01:24.799Z,4.23
2019-01-23T17:03:53.312Z,2.67
2019-01-23T17:06:21.674Z,2.57
2019-01-23T17:08:50.238Z,3.40
2019-01-23T17:11:18.643Z,4.53
2019-01-23T17:13:47.119Z,4.07
2019-01-23T17:16:15.730Z,3.77
2019-01-23T17:18:44.203Z,4.20
2019-01-23T17:21:12.572Z,4.20
2019-01-23T17:23:41.076Z,4.57
2019-01-23T17:26:09.418Z,7.43
2019-01-23T17:28:37.881Z,5.47
2019-01-23T17:31:06.459Z,5.43
2019-01-23T17:33:34.885Z,6.13
2019-01-23T17:36:03.218Z,6.23
2019-01-23T17:38:31.801Z,6.67
2019-01-23T17:41:00.221Z,8.20
2019-01-23T17:43:29.123Z,8.50
2019-01-23T17:45:57.857Z,9.60
2019-01-23T17:48:26.247Z,9.10
2019-01-23T17:50:54.580Z,9.43
2019-01-23T17:53:22.959Z,10.87
2019-01-23T17:55:51.279Z,14.33
2019-01-23T17:58:19.724Z,15.27
2019-01-23T18:00:53.139Z,14.47
2019-01-23T18:03:21.648Z,16.33
2019-01-23T18:05:51.265Z,14.97
2019-01-23T18:08:20.492Z,12.40
2019-01-23T18:10:52.396Z,14.23
2019-01-23T18:13:22.979Z,14.87
2019-01-23T18:15:52.358Z,15.97
2019-01-23T18:18:21.852Z,17.13
2019-01-23T18:20:50.505Z,18.17
2019-01-23T18:23:19.646Z,17.57
2019-01-23T18:25:48.080Z,18.00
2019-01-23T18:28:17.013Z,20.17
2019-01-23T18:30:52.315Z,22.17
2019-01-23T18:33:27.322Z,23.67
2019-01-23T18:36:42.008Z,30.13
2019-01-23T18:39:30.477Z,35.27
2019-01-23T18:42:43.115Z,35.47
2019-01-23T18:46:05.211Z,36.90
2019-01-23T18:48:59.683Z,32.63
2019-01-23T18:51:43.827Z,33.67
2019-01-23T18:54:12.934Z,30.80
2019-01-23T18:56:41.678Z,31.33
2019-01-23T18:59:15.332Z,30.87
2019-01-23T19:01:45.071Z,30.57
2019-01-23T19:04:13.794Z,32.37
2019-01-23T19:06:42.617Z,30.27
2019-01-23T19:09:12.700Z,31.23
2019-01-23T19:11:43.287Z,31.47
2019-01-23T19:14:12.114Z,30.07
2019-01-23T19:16:41.080Z,30.47
2019-01-23T19:19:10.343Z,27.37
2019-01-23T19:21:39.465Z,24.73
2019-01-23T19:24:08.225Z,22.37
2019-01-23T19:26:37.353Z,19.47
2019-01-23T19:29:06.374Z,19.33
2019-01-23T19:31:35.667Z,18.13
2019-01-23T19:34:12.376Z,20.93
2019-01-23T19:36:40.901Z,20.67
2019-01-23T19:39:12.260Z,18.60
2019-01-23T19:41:41.452Z,16.90
2019-01-23T19:44:10.597Z,16.83
2019-01-23T19:46:39.051Z,17.23
2019-01-23T19:49:07.517Z,17.87
2019-01-23T19:51:36.515Z,19.10
2019-01-23T19:54:08.937Z,19.63
2019-01-23T19:56:37.395Z,19.73
2019-01-23T19:59:06.318Z,18.83
2019-01-23T20:01:35.411Z,18.57
2019-01-23T20:04:04.428Z,18.13
2019-01-23T20:06:33.880Z,17.60
2019-01-23T20:09:26.618Z,17.77
2019-01-23T20:11:58.926Z,19.57
2019-01-23T20:14:30.524Z,22.80
2019-01-23T20:16:59.018Z,25.03
2019-01-23T20:19:30.294Z,25.43
2019-01-23T20:22:00.310Z,27.37
2019-01-23T20:24:29.713Z,28.53
2019-01-23T20:27:14.065Z,29.90
2019-01-23T20:29:43.423Z,29.73
2019-01-23T20:32:14.537Z,31.73
2019-01-23T20:34:43.106Z,30.87
2019-01-23T20:37:11.605Z,30.17
2019-01-23T20:39:41.042Z,34.90
2019-01-23T20:42:15.809Z,38.13
2019-01-23T20:44:44.793Z,30.73
2019-01-23T20:47:22.256Z,33.90
2019-01-23T20:49:51.215Z,29.17
2019-01-23T20:52:23.603Z,31.17
2019-01-23T20:54:52.653Z,33.03
2019-01-23T20:57:21.843Z,31.27
2019-01-23T20:59:52.682Z,30.63
2019-01-23T21:02:21.737Z,28.97
2019-01-23T21:05:01.711Z,28.23
2019-01-23T21:07:34.786Z,26.47
2019-01-23T21:10:05.071Z,24.93
2019-01-23T21:12:34.380Z,23.40
2019-01-23T21:15:04.465Z,24.47
2019-01-23T21:17:37.482Z,22.73
2019-01-23T21:20:06.835Z,21.77
2019-01-23T21:22:35.634Z,22.03
2019-01-23T21:25:05.917Z,20.93
2019-01-23T21:27:36.102Z,19.40
2019-01-23T21:30:06.904Z,19.73
2019-01-23T21:32:38.763Z,19.07
2019-01-23T21:35:11.524Z,22.87
2019-01-23T21:37:41.300Z,17.30
2019-01-23T21:40:18.538Z,16.77
2019-01-23T21:42:47.636Z,16.73
2019-01-23T21:45:17.192Z,15.63
2019-01-23T21:47:50.441Z,14.60
2019-01-23T21:50:20.428Z,13.27
2019-01-23T21:52:49.786Z,13.27
2019-01-23T21:55:20.379Z,14.43
2019-01-23T21:57:49.182Z,14.40
2019-01-23T22:00:30.754Z,15.20
2019-01-23T22:03:00.691Z,12.00
2019-01-23T22:05:30.993Z,12.93
2019-01-23T22:07:59.945Z,14.03
2019-01-23T22:10:28.585Z,13.83
2019-01-23T22:12:57.544Z,12.63
2019-01-23T22:15:26.501Z,13.40
2019-01-23T22:18:01.097Z,12.77
2019-01-23T22:20:30.126Z,12.87
2019-01-23T22:22:58.671Z,12.83
2019-01-23T22:25:28.628Z,11.97
2019-01-23T22:27:57.632Z,10.97
2019-01-23T22:30:27.710Z,10.70
2019-01-23T22:32:56.518Z,9.93
2019-01-23T22:35:26.966Z,9.57
2019-01-23T22:37:57.926Z,10.38
2019-01-23T22:40:26.452Z,8.67
2019-01-23T22:42:54.813Z,7.67
2019-01-23T22:45:23.130Z,7.40
2019-01-23T22:47:51.541Z,7.57
2019-01-23T22:50:22.044Z,7.47
2019-01-23T22:52:50.797Z,7.27
2019-01-23T22:55:19.321Z,7.20
2019-01-23T22:57:47.922Z,7.00
2019-01-23T23:00:43.638Z,7.07
2019-01-23T23:03:14.632Z,6.00
2019-01-23T23:05:42.988Z,6.20
2019-01-23T23:08:11.443Z,6.57
2019-01-23T23:10:39.937Z,5.63
2019-01-23T23:13:08.544Z,6.00
2019-01-23T23:15:37.189Z,5.83
2019-01-23T23:18:05.768Z,5.30
2019-01-23T23:20:34.382Z,5.40
2019-01-23T23:23:02.932Z,4.73
2019-01-23T23:25:31.414Z,4.70
2019-01-23T23:27:59.926Z,4.73
2019-01-23T23:30:28.435Z,4.47
2019-01-23T23:32:56.959Z,4.40
2019-01-23T23:35:25.380Z,4.23
2019-01-23T23:37:53.718Z,4.17
2019-01-23T23:40:22.161Z,4.50
2019-01-23T23:42:50.777Z,4.00
2019-01-23T23:45:19.351Z,4.33
2019-01-23T23:47:47.840Z,4.17
2019-01-23T23:50:16.643Z,3.87
2019-01-23T23:52:45.004Z,3.90
2019-01-23T23:55:13.930Z,3.90
2019-01-23T23:57:42.328Z,3.93
